Tuesday, January 27, 2015
18:54 UTC
  |  Log In   |  Register Free
Airport Search:

Oroville Municipal Airport
(KOVE)

Oroville Municipal Airport Diagram
No Airport Diagram Available

FAA data valid effective January 08, 2015 - March 05, 2015 (unless otherwise noted).

 
 
 
 
 
 
 
 
 
 
 
 
 
 

Current Aviation Weather for Oroville Municipal Airport (KOVE)

The most recent METAR observation for KOVE was updated at: 1811
METAR Summary (Translated METAR)
KOVE
271753Z AUTO 17005KT 9SM CLR 12/08 A3023 RMK AO2 SLP239 T01220083 10122 20094 51028
KCIC
271758Z 13008KT 7SM BKN120 OVC180 12/09 A3023
(21.5 nm NW from KOVE)
KBAB
271758Z AUTO 23005KT 10SM BKN130 13/12 A3020 RMK AO2 SLP304 T01320116 10134 20092 52025 $
(22.8 nm SE from KOVE)
TAF Summary (Translated TAF)
KBAB
(22.8 nm SE from KOVE)
2711/2817 VRB06KT 4800 BR OVC150 QNH3002INS TEMPO 2711/2716 4000 BR TEMPO 2717/2724 VRB06KT 9999 -RA OVC120 BECMG 2807/2808 VRB06KT 4800 BR BKN015 QNH3015INS TX16/2721Z TN03/2811Z
  Airport Weather Conditions for KOVE

 Current Weather at OVE
54° F
Fair
South winds at 5.8 mph
OVE NOAA Radar

Pressure: 30.23 in
Humidity: 77%
Wind: South at 5.8 MPH (5 KT)
Dew Point: 46.9°F
Visibility: 9.00 mi


Airport Weather Forecast for KOVE

Translated METAR and TAF for KOVE
Translated METAR for KOVE (1855 UTC 27 January 2015)
found at http://aviationweather.gov/adds/metars/
 
METAR text: KOVE 271753Z AUTO 17005KT 9SM CLR 12/08 A3023 RMK AO2 SLP239 T01220083 10122 20094 51028
Conditions at: KOVE (OROVILLE , CA, US) observed 1753 UTC 27 January 2015
Temperature: 12.2°C (54°F)
Dewpoint: 8.3°C (47°F) [RH = 77%]
Pressure (altimeter): 30.23 inches Hg (1023.8 mb)
[Sea-level pressure: 1023.9 mb]
Winds: from the S (170 degrees) at 6 MPH (5 knots; 2.6 m/s)
Visibility: 9 miles (14 km)
Ceiling: at least 12,000 feet AGL
Clouds: sky clear below 12,000 feet AGL
Weather: automated observation with no human augmentation;
there may or may not be significant weather present at this time
Translated TAF for KOVE

There is no translated TAF available for this airport

Find All Airport Services Find A Hotel Find A Rental Car Find A Golf Course Find A Restaurant $100 Hamburger



FBO's on the Field
FBO Company Facility Photos Services Transportation Aviation Fuel Prices: Prices include tax
Catering Weather Repair Courtesy Rental Type 100LL JetA JetA+ MOGAS 8087
 
Oroville Municipal Airport

This FBO has not yet been rated
FS:Epic
Last Updated: Jan-05
Login to update fuel prices
SS:
Contact Oroville Municipal AirportMore FBO Information
 
Add another FBO Facility Photos Catering Weather Repair Courtesy Rental Type 100LL JetA JetA+ MOGAS 8087
Services Transportation Aviation Fuel Prices: Prices include tax


model-print
model-print
model-print
model-print